الصفحة الرئيسية
METAR-TAF:

METAR-TAF

مطار :

Kangerlussuaq, جرينلاند

مطار كانجرلوسواك

دائرة عرض: 67-01N, خط طول: 050-42W, ارتفاع: 50 متر

مراقبة الطقس الحالي

تاريخ ووقت الإصدار 54 دقيقة قبل الساعة 20:50UTC
ريح 7 عقدة من الشمال الشرقي
درجة الحرارة -27°درجة مئوية
الرطوبة 75%
ضغط 1011 hPa
الرؤية 10 كم أو أكثر

METAR: BGSF 182050Z AUTO 05007KT 9999NDV FEW120/// M27/M30 Q1011

زمن: 18:44 (21:44 UTC)

توقعات

تاريخ ووقت الإصدار 10ساعات و 37 دقيقة قبل الساعة 11:07UTC
التوقعات صالحة من18 الساعة 12 UTC إلى 18 الساعة 19 UTC
ريح 8 عقدة من الشرق/الشمال الشرقي
الرؤية 10 كم أو أكثر
غيوم قليلة على ارتفاع 20000 قدم

TAF: BGSF 181107Z 1812/1819 06008KT 9999 FEW200

أرصاد الطقس والتوقعات من أكثر من 4000 مطار (تقارير الطقس للمطار METAR والتنبؤ بالطقس بالمطارTAF).

المحطات المتاحة هي النقط الصفراء والحمراء على الخريطة.

حرك المؤشر فوق النقطة لمعرفة اسم المحطة.

ثم انقر لمعرفة أرصاد وتوقعات الطقس.

لتغيير الخارطة: اضغط على الأزرار الخضراء مع رمز الصليب الأسود للتكبير. على الزر الأخضر مع شرطة للتصغير، أو على الأسهم الخضراء للخرائط المجاورة.


METAR-TAF: